sensor_id;sensor_type;location;lat;lon;timestamp;temperature;humidity
14357;DHT22;7262;48.764;9.166;2023-05-02T00:01:14;9.50;99.90
14357;DHT22;7262;48.764;9.166;2023-05-02T00:03:41;9.50;99.90
14357;DHT22;7262;48.764;9.166;2023-05-02T00:06:09;9.50;99.90
14357;DHT22;7262;48.764;9.166;2023-05-02T00:08:36;9.50;99.90
14357;DHT22;7262;48.764;9.166;2023-05-02T00:11:03;9.40;99.90
14357;DHT22;7262;48.764;9.166;2023-05-02T00:13:29;9.40;99.90
14357;DHT22;7262;48.764;9.166;2023-05-02T00:15:56;9.40;99.90
14357;DHT22;7262;48.764;9.166;2023-05-02T00:18:24;9.40;99.90
14357;DHT22;7262;48.764;9.166;2023-05-02T00:20:51;9.40;99.90
14357;DHT22;7262;48.764;9.166;2023-05-02T00:23:18;9.40;99.90
14357;DHT22;7262;48.764;9.166;2023-05-02T00:25:45;9.40;99.90
14357;DHT22;7262;48.764;9.166;2023-05-02T00:28:11;9.30;99.90
14357;DHT22;7262;48.764;9.166;2023-05-02T00:30:41;9.30;99.90
14357;DHT22;7262;48.764;9.166;2023-05-02T00:33:09;9.30;99.90
14357;DHT22;7262;48.764;9.166;2023-05-02T00:35:38;9.20;99.90
14357;DHT22;7262;48.764;9.166;2023-05-02T00:38:04;9.20;99.90
14357;DHT22;7262;48.764;9.166;2023-05-02T00:40:41;9.10;99.90
14357;DHT22;7262;48.764;9.166;2023-05-02T00:43:07;9.10;99.90
14357;DHT22;7262;48.764;9.166;2023-05-02T00:45:34;9.10;99.90
14357;DHT22;7262;48.764;9.166;2023-05-02T00:48:01;9.10;99.90
14357;DHT22;7262;48.764;9.166;2023-05-02T00:50:28;9.10;99.90
14357;DHT22;7262;48.764;9.166;2023-05-02T00:52:57;9.00;99.90
14357;DHT22;7262;48.764;9.166;2023-05-02T00:55:26;9.00;99.90
14357;DHT22;7262;48.764;9.166;2023-05-02T00:57:53;9.00;99.90
14357;DHT22;7262;48.764;9.166;2023-05-02T01:00:20;9.00;99.90
14357;DHT22;7262;48.764;9.166;2023-05-02T01:02:49;9.00;99.90
14357;DHT22;7262;48.764;9.166;2023-05-02T01:05:17;9.00;99.90
14357;DHT22;7262;48.764;9.166;2023-05-02T01:07:47;8.90;99.90
14357;DHT22;7262;48.764;9.166;2023-05-02T01:10:20;8.90;99.90
14357;DHT22;7262;48.764;9.166;2023-05-02T01:12:51;8.90;99.90
14357;DHT22;7262;48.764;9.166;2023-05-02T01:15:20;8.80;99.90
14357;DHT22;7262;48.764;9.166;2023-05-02T01:17:47;8.80;99.90
14357;DHT22;7262;48.764;9.166;2023-05-02T01:20:16;8.80;99.90
14357;DHT22;7262;48.764;9.166;2023-05-02T01:22:44;8.80;99.90
14357;DHT22;7262;48.764;9.166;2023-05-02T01:25:18;8.80;99.90
14357;DHT22;7262;48.764;9.166;2023-05-02T01:27:55;8.80;99.90
14357;DHT22;7262;48.764;9.166;2023-05-02T01:30:25;8.70;99.90
14357;DHT22;7262;48.764;9.166;2023-05-02T01:32:54;8.80;99.90
14357;DHT22;7262;48.764;9.166;2023-05-02T01:35:22;8.80;99.90
14357;DHT22;7262;48.764;9.166;2023-05-02T01:37:49;8.80;99.90
14357;DHT22;7262;48.764;9.166;2023-05-02T01:40:18;8.80;99.90
14357;DHT22;7262;48.764;9.166;2023-05-02T01:42:47;8.80;99.90
14357;DHT22;7262;48.764;9.166;2023-05-02T01:45:18;8.80;99.90
14357;DHT22;7262;48.764;9.166;2023-05-02T01:47:47;8.80;99.90
14357;DHT22;7262;48.764;9.166;2023-05-02T01:50:16;8.80;99.90
14357;DHT22;7262;48.764;9.166;2023-05-02T01:52:44;8.90;99.90
14357;DHT22;7262;48.764;9.166;2023-05-02T01:55:12;8.80;99.90
14357;DHT22;7262;48.764;9.166;2023-05-02T01:57:41;8.70;99.90
14357;DHT22;7262;48.764;9.166;2023-05-02T02:00:10;8.70;99.90
14357;DHT22;7262;48.764;9.166;2023-05-02T02:02:37;8.70;99.90
14357;DHT22;7262;48.764;9.166;2023-05-02T02:05:06;8.60;99.90
14357;DHT22;7262;48.764;9.166;2023-05-02T02:07:34;8.60;99.90
14357;DHT22;7262;48.764;9.166;2023-05-02T02:10:05;8.60;99.90
14357;DHT22;7262;48.764;9.166;2023-05-02T02:12:34;8.60;99.90
14357;DHT22;7262;48.764;9.166;2023-05-02T02:15:02;8.60;99.90
14357;DHT22;7262;48.764;9.166;2023-05-02T02:17:35;8.50;99.90
14357;DHT22;7262;48.764;9.166;2023-05-02T02:20:04;8.50;99.90
14357;DHT22;7262;48.764;9.166;2023-05-02T02:22:33;8.50;99.90
14357;DHT22;7262;48.764;9.166;2023-05-02T02:25:03;8.50;99.90
14357;DHT22;7262;48.764;9.166;2023-05-02T02:27:31;8.40;99.90
14357;DHT22;7262;48.764;9.166;2023-05-02T02:29:58;8.40;99.90
14357;DHT22;7262;48.764;9.166;2023-05-02T02:32:25;8.40;99.90
14357;DHT22;7262;48.764;9.166;2023-05-02T02:34:52;8.40;99.90
14357;DHT22;7262;48.764;9.166;2023-05-02T02:37:21;8.40;99.90
14357;DHT22;7262;48.764;9.166;2023-05-02T02:39:53;8.30;99.90
14357;DHT22;7262;48.764;9.166;2023-05-02T02:42:23;8.40;99.90
14357;DHT22;7262;48.764;9.166;2023-05-02T02:44:53;8.30;99.90
14357;DHT22;7262;48.764;9.166;2023-05-02T02:47:22;8.30;99.90
14357;DHT22;7262;48.764;9.166;2023-05-02T02:49:56;8.30;99.90
14357;DHT22;7262;48.764;9.166;2023-05-02T02:52:27;8.30;99.90
14357;DHT22;7262;48.764;9.166;2023-05-02T02:54:59;8.30;99.90
14357;DHT22;7262;48.764;9.166;2023-05-02T02:57:31;8.30;99.90
14357;DHT22;7262;48.764;9.166;2023-05-02T03:00:04;8.30;99.90
14357;DHT22;7262;48.764;9.166;2023-05-02T03:02:33;8.30;99.90
14357;DHT22;7262;48.764;9.166;2023-05-02T03:05:01;8.30;99.90
14357;DHT22;7262;48.764;9.166;2023-05-02T03:07:29;8.30;99.90
14357;DHT22;7262;48.764;9.166;2023-05-02T03:09:56;8.30;99.90
14357;DHT22;7262;48.764;9.166;2023-05-02T03:12:24;8.40;99.90
14357;DHT22;7262;48.764;9.166;2023-05-02T03:14:51;8.40;99.90
14357;DHT22;7262;48.764;9.166;2023-05-02T03:17:18;8.40;99.90
14357;DHT22;7262;48.764;9.166;2023-05-02T03:19:45;8.50;99.90
14357;DHT22;7262;48.764;9.166;2023-05-02T03:22:11;8.60;99.90
14357;DHT22;7262;48.764;9.166;2023-05-02T03:24:38;8.60;99.90
14357;DHT22;7262;48.764;9.166;2023-05-02T03:27:05;8.60;99.90
14357;DHT22;7262;48.764;9.166;2023-05-02T03:29:33;8.70;99.90
14357;DHT22;7262;48.764;9.166;2023-05-02T03:32:00;8.70;99.90
14357;DHT22;7262;48.764;9.166;2023-05-02T03:34:27;8.70;99.90
14357;DHT22;7262;48.764;9.166;2023-05-02T03:36:54;8.80;99.90
14357;DHT22;7262;48.764;9.166;2023-05-02T03:39:20;8.90;99.90
14357;DHT22;7262;48.764;9.166;2023-05-02T03:41:47;8.90;99.90
14357;DHT22;7262;48.764;9.166;2023-05-02T03:44:14;9.00;99.90
14357;DHT22;7262;48.764;9.166;2023-05-02T03:46:42;9.00;99.90
14357;DHT22;7262;48.764;9.166;2023-05-02T03:49:08;9.10;99.90
14357;DHT22;7262;48.764;9.166;2023-05-02T03:51:35;9.00;99.90
14357;DHT22;7262;48.764;9.166;2023-05-02T03:54:02;9.10;99.90
14357;DHT22;7262;48.764;9.166;2023-05-02T03:56:30;9.20;99.90
14357;DHT22;7262;48.764;9.166;2023-05-02T03:58:57;9.20;99.90
14357;DHT22;7262;48.764;9.166;2023-05-02T04:01:23;9.20;99.90
14357;DHT22;7262;48.764;9.166;2023-05-02T04:03:52;9.20;99.90
14357;DHT22;7262;48.764;9.166;2023-05-02T04:06:19;9.20;99.90
14357;DHT22;7262;48.764;9.166;2023-05-02T04:08:45;9.20;99.90
14357;DHT22;7262;48.764;9.166;2023-05-02T04:11:12;9.30;99.90
14357;DHT22;7262;48.764;9.166;2023-05-02T04:13:39;9.30;99.90
14357;DHT22;7262;48.764;9.166;2023-05-02T04:16:06;9.30;99.90
14357;DHT22;7262;48.764;9.166;2023-05-02T04:18:35;9.40;99.90
14357;DHT22;7262;48.764;9.166;2023-05-02T04:21:03;9.40;99.90
14357;DHT22;7262;48.764;9.166;2023-05-02T04:23:29;9.40;99.90
14357;DHT22;7262;48.764;9.166;2023-05-02T04:25:56;9.50;99.90
14357;DHT22;7262;48.764;9.166;2023-05-02T04:28:24;9.50;99.90
14357;DHT22;7262;48.764;9.166;2023-05-02T04:30:52;9.50;99.90
14357;DHT22;7262;48.764;9.166;2023-05-02T04:33:18;9.50;99.90
14357;DHT22;7262;48.764;9.166;2023-05-02T04:35:47;9.50;99.90
14357;DHT22;7262;48.764;9.166;2023-05-02T04:38:15;9.50;99.90
14357;DHT22;7262;48.764;9.166;2023-05-02T04:40:42;9.50;99.90
14357;DHT22;7262;48.764;9.166;2023-05-02T04:43:09;9.60;99.90
14357;DHT22;7262;48.764;9.166;2023-05-02T04:45:36;9.50;99.90
14357;DHT22;7262;48.764;9.166;2023-05-02T04:48:03;9.50;99.90
14357;DHT22;7262;48.764;9.166;2023-05-02T04:50:38;9.60;99.90
14357;DHT22;7262;48.764;9.166;2023-05-02T04:53:05;9.60;99.90
14357;DHT22;7262;48.764;9.166;2023-05-02T04:55:33;9.70;99.90
14357;DHT22;7262;48.764;9.166;2023-05-02T04:58:00;9.80;99.90
14357;DHT22;7262;48.764;9.166;2023-05-02T05:00:27;9.80;99.90
14357;DHT22;7262;48.764;9.166;2023-05-02T05:02:54;9.90;99.90
14357;DHT22;7262;48.764;9.166;2023-05-02T05:05:21;9.90;99.90
14357;DHT22;7262;48.764;9.166;2023-05-02T05:07:48;9.90;99.90
14357;DHT22;7262;48.764;9.166;2023-05-02T05:10:16;10.00;99.90
14357;DHT22;7262;48.764;9.166;2023-05-02T05:12:45;10.00;99.90
14357;DHT22;7262;48.764;9.166;2023-05-02T05:15:13;10.10;99.90
14357;DHT22;7262;48.764;9.166;2023-05-02T05:17:41;10.10;99.90
14357;DHT22;7262;48.764;9.166;2023-05-02T05:20:09;10.30;99.90
14357;DHT22;7262;48.764;9.166;2023-05-02T05:22:39;10.20;99.90
14357;DHT22;7262;48.764;9.166;2023-05-02T05:25:06;10.30;99.90
14357;DHT22;7262;48.764;9.166;2023-05-02T05:27:33;10.30;99.90
14357;DHT22;7262;48.764;9.166;2023-05-02T05:30:01;10.40;99.90
14357;DHT22;7262;48.764;9.166;2023-05-02T05:32:29;10.40;99.90
14357;DHT22;7262;48.764;9.166;2023-05-02T05:34:57;10.60;99.90
14357;DHT22;7262;48.764;9.166;2023-05-02T05:37:23;10.80;99.90
14357;DHT22;7262;48.764;9.166;2023-05-02T05:39:50;11.00;99.90
14357;DHT22;7262;48.764;9.166;2023-05-02T05:42:17;10.90;99.90
14357;DHT22;7262;48.764;9.166;2023-05-02T05:49:59;11.40;99.90
14357;DHT22;7262;48.764;9.166;2023-05-02T05:52:27;11.50;99.90
14357;DHT22;7262;48.764;9.166;2023-05-02T05:54:54;11.60;99.90
14357;DHT22;7262;48.764;9.166;2023-05-02T05:57:22;11.70;99.90
14357;DHT22;7262;48.764;9.166;2023-05-02T05:59:49;11.80;99.90
14357;DHT22;7262;48.764;9.166;2023-05-02T06:02:16;11.90;99.90
14357;DHT22;7262;48.764;9.166;2023-05-02T06:04:44;11.90;99.90
14357;DHT22;7262;48.764;9.166;2023-05-02T06:10:10;12.00;99.90
14357;DHT22;7262;48.764;9.166;2023-05-02T06:12:39;12.10;99.90
14357;DHT22;7262;48.764;9.166;2023-05-02T06:15:06;12.10;99.90
14357;DHT22;7262;48.764;9.166;2023-05-02T06:17:33;12.20;99.90
14357;DHT22;7262;48.764;9.166;2023-05-02T06:19:59;12.30;99.90
14357;DHT22;7262;48.764;9.166;2023-05-02T06:22:26;12.40;99.90
14357;DHT22;7262;48.764;9.166;2023-05-02T06:24:53;12.50;99.90
14357;DHT22;7262;48.764;9.166;2023-05-02T06:27:22;12.50;99.90
14357;DHT22;7262;48.764;9.166;2023-05-02T06:29:50;12.60;99.90
14357;DHT22;7262;48.764;9.166;2023-05-02T06:32:17;12.90;99.90
14357;DHT22;7262;48.764;9.166;2023-05-02T06:34:44;12.80;99.90
14357;DHT22;7262;48.764;9.166;2023-05-02T06:37:11;12.70;99.90
14357;DHT22;7262;48.764;9.166;2023-05-02T06:39:38;12.90;99.90
14357;DHT22;7262;48.764;9.166;2023-05-02T06:42:05;12.90;99.90
14357;DHT22;7262;48.764;9.166;2023-05-02T06:44:33;13.20;99.90
14357;DHT22;7262;48.764;9.166;2023-05-02T06:47:00;13.50;99.90
14357;DHT22;7262;48.764;9.166;2023-05-02T06:49:27;13.60;99.90
14357;DHT22;7262;48.764;9.166;2023-05-02T06:51:54;13.80;99.90
14357;DHT22;7262;48.764;9.166;2023-05-02T06:54:20;13.70;99.90
14357;DHT22;7262;48.764;9.166;2023-05-02T06:56:47;13.70;99.90
14357;DHT22;7262;48.764;9.166;2023-05-02T06:59:14;13.40;99.90
14357;DHT22;7262;48.764;9.166;2023-05-02T07:01:43;13.30;99.90
14357;DHT22;7262;48.764;9.166;2023-05-02T07:04:10;13.10;99.90
14357;DHT22;7262;48.764;9.166;2023-05-02T07:06:36;13.10;99.90
14357;DHT22;7262;48.764;9.166;2023-05-02T07:09:03;13.10;99.90
14357;DHT22;7262;48.764;9.166;2023-05-02T07:11:30;13.00;99.90
14357;DHT22;7262;48.764;9.166;2023-05-02T07:13:57;13.00;99.90
14357;DHT22;7262;48.764;9.166;2023-05-02T07:16:24;13.00;99.90
14357;DHT22;7262;48.764;9.166;2023-05-02T07:18:53;12.90;99.90
14357;DHT22;7262;48.764;9.166;2023-05-02T07:21:20;12.90;99.90
14357;DHT22;7262;48.764;9.166;2023-05-02T07:23:47;12.90;99.90
14357;DHT22;7262;48.764;9.166;2023-05-02T07:26:13;12.90;99.90
14357;DHT22;7262;48.764;9.166;2023-05-02T07:28:43;12.90;99.90
14357;DHT22;7262;48.764;9.166;2023-05-02T07:31:12;12.90;99.90
14357;DHT22;7262;48.764;9.166;2023-05-02T07:33:39;12.90;99.90
14357;DHT22;7262;48.764;9.166;2023-05-02T07:36:07;12.80;99.90
14357;DHT22;7262;48.764;9.166;2023-05-02T07:38:34;13.00;99.90
14357;DHT22;7262;48.764;9.166;2023-05-02T07:41:00;13.00;99.90
14357;DHT22;7262;48.764;9.166;2023-05-02T07:43:27;13.00;99.90
14357;DHT22;7262;48.764;9.166;2023-05-02T07:45:57;13.20;99.90
14357;DHT22;7262;48.764;9.166;2023-05-02T07:48:23;13.10;99.90
14357;DHT22;7262;48.764;9.166;2023-05-02T07:50:50;13.30;99.90
14357;DHT22;7262;48.764;9.166;2023-05-02T07:53:18;13.50;99.90
14357;DHT22;7262;48.764;9.166;2023-05-02T07:55:45;13.60;99.90
14357;DHT22;7262;48.764;9.166;2023-05-02T07:58:12;13.90;99.90
14357;DHT22;7262;48.764;9.166;2023-05-02T08:00:59;14.20;99.90
14357;DHT22;7262;48.764;9.166;2023-05-02T08:03:26;14.20;99.90
14357;DHT22;7262;48.764;9.166;2023-05-02T08:05:53;14.30;99.90
14357;DHT22;7262;48.764;9.166;2023-05-02T08:08:22;14.10;99.90
14357;DHT22;7262;48.764;9.166;2023-05-02T08:10:48;13.90;99.90
14357;DHT22;7262;48.764;9.166;2023-05-02T08:13:16;13.40;99.90
14357;DHT22;7262;48.764;9.166;2023-05-02T08:15:42;13.30;99.90
14357;DHT22;7262;48.764;9.166;2023-05-02T08:18:09;13.20;99.90
14357;DHT22;7262;48.764;9.166;2023-05-02T08:20:36;13.00;99.90
14357;DHT22;7262;48.764;9.166;2023-05-02T08:23:03;12.90;99.90
14357;DHT22;7262;48.764;9.166;2023-05-02T08:25:31;13.00;99.90
14357;DHT22;7262;48.764;9.166;2023-05-02T08:27:57;13.20;99.90
14357;DHT22;7262;48.764;9.166;2023-05-02T08:30:24;13.30;99.90
14357;DHT22;7262;48.764;9.166;2023-05-02T08:32:51;13.40;99.90
14357;DHT22;7262;48.764;9.166;2023-05-02T08:35:18;13.40;99.90
14357;DHT22;7262;48.764;9.166;2023-05-02T08:37:44;13.70;99.90
14357;DHT22;7262;48.764;9.166;2023-05-02T08:40:11;14.00;99.90
14357;DHT22;7262;48.764;9.166;2023-05-02T08:42:41;14.20;99.90
14357;DHT22;7262;48.764;9.166;2023-05-02T08:45:10;14.60;99.90
14357;DHT22;7262;48.764;9.166;2023-05-02T08:47:39;14.90;99.90
14357;DHT22;7262;48.764;9.166;2023-05-02T08:50:06;14.90;99.90
14357;DHT22;7262;48.764;9.166;2023-05-02T08:52:34;14.90;99.90
14357;DHT22;7262;48.764;9.166;2023-05-02T08:55:01;14.80;99.90
14357;DHT22;7262;48.764;9.166;2023-05-02T08:57:28;15.20;99.90
14357;DHT22;7262;48.764;9.166;2023-05-02T08:59:57;15.70;99.90
14357;DHT22;7262;48.764;9.166;2023-05-02T09:02:28;15.70;99.90
14357;DHT22;7262;48.764;9.166;2023-05-02T09:05:03;15.90;99.90
14357;DHT22;7262;48.764;9.166;2023-05-02T09:07:41;16.00;99.90
14357;DHT22;7262;48.764;9.166;2023-05-02T09:10:10;16.40;99.90
14357;DHT22;7262;48.764;9.166;2023-05-02T09:12:37;16.80;99.90
14357;DHT22;7262;48.764;9.166;2023-05-02T09:15:09;16.90;99.90
14357;DHT22;7262;48.764;9.166;2023-05-02T09:17:40;16.70;99.90
14357;DHT22;7262;48.764;9.166;2023-05-02T09:20:07;16.90;99.90
14357;DHT22;7262;48.764;9.166;2023-05-02T09:22:34;16.90;99.90
14357;DHT22;7262;48.764;9.166;2023-05-02T09:25:02;16.80;99.90
14357;DHT22;7262;48.764;9.166;2023-05-02T09:30:21;16.60;99.90
14357;DHT22;7262;48.764;9.166;2023-05-02T09:32:48;16.80;99.90
14357;DHT22;7262;48.764;9.166;2023-05-02T09:35:16;16.60;99.90
14357;DHT22;7262;48.764;9.166;2023-05-02T09:37:51;16.80;99.90
14357;DHT22;7262;48.764;9.166;2023-05-02T09:40:18;17.10;99.90
14357;DHT22;7262;48.764;9.166;2023-05-02T09:42:45;17.20;99.90
14357;DHT22;7262;48.764;9.166;2023-05-02T09:45:21;17.00;99.90
14357;DHT22;7262;48.764;9.166;2023-05-02T09:47:48;16.50;99.90
14357;DHT22;7262;48.764;9.166;2023-05-02T09:53:00;18.00;99.90
14357;DHT22;7262;48.764;9.166;2023-05-02T09:55:27;19.40;99.90
14357;DHT22;7262;48.764;9.166;2023-05-02T09:57:55;19.20;99.90
14357;DHT22;7262;48.764;9.166;2023-05-02T10:00:37;19.10;99.90
14357;DHT22;7262;48.764;9.166;2023-05-02T10:03:05;18.80;99.90
14357;DHT22;7262;48.764;9.166;2023-05-02T10:05:34;18.40;99.90
14357;DHT22;7262;48.764;9.166;2023-05-02T10:08:02;18.20;99.90
14357;DHT22;7262;48.764;9.166;2023-05-02T10:10:29;18.00;99.90
14357;DHT22;7262;48.764;9.166;2023-05-02T10:12:58;17.90;99.90
14357;DHT22;7262;48.764;9.166;2023-05-02T10:15:25;18.00;99.90
14357;DHT22;7262;48.764;9.166;2023-05-02T10:17:57;17.90;99.90
14357;DHT22;7262;48.764;9.166;2023-05-02T10:20:25;17.70;99.90
14357;DHT22;7262;48.764;9.166;2023-05-02T10:22:55;18.00;99.90
14357;DHT22;7262;48.764;9.166;2023-05-02T10:25:24;18.30;99.90
14357;DHT22;7262;48.764;9.166;2023-05-02T10:27:51;18.80;99.90
14357;DHT22;7262;48.764;9.166;2023-05-02T10:30:18;19.30;99.90
14357;DHT22;7262;48.764;9.166;2023-05-02T10:32:45;20.60;99.90
14357;DHT22;7262;48.764;9.166;2023-05-02T10:35:14;20.90;99.90
14357;DHT22;7262;48.764;9.166;2023-05-02T10:37:41;20.90;99.90
14357;DHT22;7262;48.764;9.166;2023-05-02T10:40:09;21.20;99.90
14357;DHT22;7262;48.764;9.166;2023-05-02T10:42:37;22.00;99.90
14357;DHT22;7262;48.764;9.166;2023-05-02T10:45:09;21.90;99.90
14357;DHT22;7262;48.764;9.166;2023-05-02T10:47:36;21.20;99.90
14357;DHT22;7262;48.764;9.166;2023-05-02T10:50:03;20.90;99.90
14357;DHT22;7262;48.764;9.166;2023-05-02T10:52:34;20.30;99.90
14357;DHT22;7262;48.764;9.166;2023-05-02T10:55:15;20.40;99.90
14357;DHT22;7262;48.764;9.166;2023-05-02T11:00:39;19.20;99.90
14357;DHT22;7262;48.764;9.166;2023-05-02T11:03:08;18.30;99.90
14357;DHT22;7262;48.764;9.166;2023-05-02T11:05:36;18.20;99.90
14357;DHT22;7262;48.764;9.166;2023-05-02T11:08:35;18.70;99.90
14357;DHT22;7262;48.764;9.166;2023-05-02T11:13:49;20.40;99.90
14357;DHT22;7262;48.764;9.166;2023-05-02T11:16:16;19.80;99.90
14357;DHT22;7262;48.764;9.166;2023-05-02T11:19:02;19.20;99.90
14357;DHT22;7262;48.764;9.166;2023-05-02T11:21:28;19.70;99.90
14357;DHT22;7262;48.764;9.166;2023-05-02T11:26:45;20.70;99.90
14357;DHT22;7262;48.764;9.166;2023-05-02T11:29:12;19.90;99.90
14357;DHT22;7262;48.764;9.166;2023-05-02T11:31:59;19.50;99.90
14357;DHT22;7262;48.764;9.166;2023-05-02T11:34:26;19.20;99.90
14357;DHT22;7262;48.764;9.166;2023-05-02T11:36:53;18.70;99.90
14357;DHT22;7262;48.764;9.166;2023-05-02T11:39:20;17.90;99.90
14357;DHT22;7262;48.764;9.166;2023-05-02T11:41:49;18.60;99.90
14357;DHT22;7262;48.764;9.166;2023-05-02T11:44:19;19.90;99.90
14357;DHT22;7262;48.764;9.166;2023-05-02T11:46:47;21.10;99.90
14357;DHT22;7262;48.764;9.166;2023-05-02T11:49:14;21.90;99.90
14357;DHT22;7262;48.764;9.166;2023-05-02T11:51:41;21.20;99.90
14357;DHT22;7262;48.764;9.166;2023-05-02T11:54:08;20.40;99.90
14357;DHT22;7262;48.764;9.166;2023-05-02T11:56:42;19.80;99.90
14357;DHT22;7262;48.764;9.166;2023-05-02T11:59:10;19.30;99.90
14357;DHT22;7262;48.764;9.166;2023-05-02T12:01:45;19.00;99.90
14357;DHT22;7262;48.764;9.166;2023-05-02T12:04:12;19.10;99.90
14357;DHT22;7262;48.764;9.166;2023-05-02T12:06:43;20.10;99.90
14357;DHT22;7262;48.764;9.166;2023-05-02T12:09:20;20.20;99.90
14357;DHT22;7262;48.764;9.166;2023-05-02T12:11:50;19.30;99.90
14357;DHT22;7262;48.764;9.166;2023-05-02T12:14:19;20.20;99.90
14357;DHT22;7262;48.764;9.166;2023-05-02T12:16:52;22.00;99.90
14357;DHT22;7262;48.764;9.166;2023-05-02T12:19:19;23.60;99.90
14357;DHT22;7262;48.764;9.166;2023-05-02T12:21:47;23.50;99.90
14357;DHT22;7262;48.764;9.166;2023-05-02T12:24:14;23.60;99.90
14357;DHT22;7262;48.764;9.166;2023-05-02T12:26:42;23.70;99.90
14357;DHT22;7262;48.764;9.166;2023-05-02T12:29:09;23.90;99.90
14357;DHT22;7262;48.764;9.166;2023-05-02T12:31:38;24.20;99.90
14357;DHT22;7262;48.764;9.166;2023-05-02T12:34:09;23.70;99.90
14357;DHT22;7262;48.764;9.166;2023-05-02T12:36:42;24.00;99.90
14357;DHT22;7262;48.764;9.166;2023-05-02T12:39:10;23.50;99.90
14357;DHT22;7262;48.764;9.166;2023-05-02T12:41:38;23.50;99.90
14357;DHT22;7262;48.764;9.166;2023-05-02T12:44:10;23.30;99.90
14357;DHT22;7262;48.764;9.166;2023-05-02T12:46:38;22.80;99.90
14357;DHT22;7262;48.764;9.166;2023-05-02T12:49:22;20.80;99.90
14357;DHT22;7262;48.764;9.166;2023-05-02T12:51:51;19.90;99.90
14357;DHT22;7262;48.764;9.166;2023-05-02T12:54:20;19.30;99.90
14357;DHT22;7262;48.764;9.166;2023-05-02T12:56:52;19.10;99.90
14357;DHT22;7262;48.764;9.166;2023-05-02T13:02:14;20.70;99.90
14357;DHT22;7262;48.764;9.166;2023-05-02T13:04:48;20.20;99.90
14357;DHT22;7262;48.764;9.166;2023-05-02T13:07:17;19.20;99.90
14357;DHT22;7262;48.764;9.166;2023-05-02T13:09:55;19.00;99.90
14357;DHT22;7262;48.764;9.166;2023-05-02T13:12:22;19.20;99.90
14357;DHT22;7262;48.764;9.166;2023-05-02T13:14:50;19.20;99.90
14357;DHT22;7262;48.764;9.166;2023-05-02T13:17:29;19.40;99.90
14357;DHT22;7262;48.764;9.166;2023-05-02T13:20:00;19.00;99.90
14357;DHT22;7262;48.764;9.166;2023-05-02T13:22:27;19.20;99.90
14357;DHT22;7262;48.764;9.166;2023-05-02T13:24:55;19.40;99.90
14357;DHT22;7262;48.764;9.166;2023-05-02T13:27:22;19.50;99.90
14357;DHT22;7262;48.764;9.166;2023-05-02T13:29:49;19.30;99.90
14357;DHT22;7262;48.764;9.166;2023-05-02T13:32:28;18.90;99.90
14357;DHT22;7262;48.764;9.166;2023-05-02T13:34:55;19.50;99.90
14357;DHT22;7262;48.764;9.166;2023-05-02T13:37:24;21.10;99.90
14357;DHT22;7262;48.764;9.166;2023-05-02T13:39:50;22.70;99.90
14357;DHT22;7262;48.764;9.166;2023-05-02T13:42:19;23.80;99.90
14357;DHT22;7262;48.764;9.166;2023-05-02T13:44:47;22.80;99.90
14357;DHT22;7262;48.764;9.166;2023-05-02T13:47:29;22.30;99.90
14357;DHT22;7262;48.764;9.166;2023-05-02T13:49:58;21.20;99.90
14357;DHT22;7262;48.764;9.166;2023-05-02T13:52:25;21.40;99.90
14357;DHT22;7262;48.764;9.166;2023-05-02T13:54:52;21.90;99.90
14357;DHT22;7262;48.764;9.166;2023-05-02T13:57:19;22.50;99.90
14357;DHT22;7262;48.764;9.166;2023-05-02T13:59:48;23.00;99.90
14357;DHT22;7262;48.764;9.166;2023-05-02T14:02:16;23.80;99.90
14357;DHT22;7262;48.764;9.166;2023-05-02T14:04:44;23.70;99.90
14357;DHT22;7262;48.764;9.166;2023-05-02T14:07:12;23.70;99.90
14357;DHT22;7262;48.764;9.166;2023-05-02T14:09:46;22.70;99.90
14357;DHT22;7262;48.764;9.166;2023-05-02T14:12:14;22.90;99.90
14357;DHT22;7262;48.764;9.166;2023-05-02T14:14:41;23.60;99.90
14357;DHT22;7262;48.764;9.166;2023-05-02T14:17:08;23.80;99.90
14357;DHT22;7262;48.764;9.166;2023-05-02T14:19:35;23.50;99.90
14357;DHT22;7262;48.764;9.166;2023-05-02T14:22:03;22.60;99.90
14357;DHT22;7262;48.764;9.166;2023-05-02T14:24:30;22.70;99.90
14357;DHT22;7262;48.764;9.166;2023-05-02T14:26:57;22.40;99.90
14357;DHT22;7262;48.764;9.166;2023-05-02T14:29:24;22.50;99.90
14357;DHT22;7262;48.764;9.166;2023-05-02T14:31:50;23.10;99.90
14357;DHT22;7262;48.764;9.166;2023-05-02T14:34:19;23.40;99.90
14357;DHT22;7262;48.764;9.166;2023-05-02T14:36:47;23.70;99.90
14357;DHT22;7262;48.764;9.166;2023-05-02T14:39:16;23.70;99.90
14357;DHT22;7262;48.764;9.166;2023-05-02T14:41:43;23.40;99.90
14357;DHT22;7262;48.764;9.166;2023-05-02T14:44:10;23.00;99.90
14357;DHT22;7262;48.764;9.166;2023-05-02T14:46:37;23.60;99.90
14357;DHT22;7262;48.764;9.166;2023-05-02T14:49:04;22.80;99.90
14357;DHT22;7262;48.764;9.166;2023-05-02T14:51:30;22.30;99.90
14357;DHT22;7262;48.764;9.166;2023-05-02T14:53:57;22.00;99.90
14357;DHT22;7262;48.764;9.166;2023-05-02T14:56:25;21.60;99.90
14357;DHT22;7262;48.764;9.166;2023-05-02T14:58:52;20.70;99.90
14357;DHT22;7262;48.764;9.166;2023-05-02T15:01:19;20.40;99.90
14357;DHT22;7262;48.764;9.166;2023-05-02T15:03:46;20.20;99.90
14357;DHT22;7262;48.764;9.166;2023-05-02T15:06:16;20.60;99.90
14357;DHT22;7262;48.764;9.166;2023-05-02T15:08:43;20.50;99.90
14357;DHT22;7262;48.764;9.166;2023-05-02T15:11:10;20.00;99.90
14357;DHT22;7262;48.764;9.166;2023-05-02T15:13:38;19.90;99.90
14357;DHT22;7262;48.764;9.166;2023-05-02T15:16:05;19.60;99.90
14357;DHT22;7262;48.764;9.166;2023-05-02T15:18:33;19.10;99.90
14357;DHT22;7262;48.764;9.166;2023-05-02T15:21:00;19.10;99.90
14357;DHT22;7262;48.764;9.166;2023-05-02T15:23:26;18.70;99.90
14357;DHT22;7262;48.764;9.166;2023-05-02T15:25:53;18.60;99.90
14357;DHT22;7262;48.764;9.166;2023-05-02T15:28:23;18.70;99.90
14357;DHT22;7262;48.764;9.166;2023-05-02T15:30:51;18.60;99.90
14357;DHT22;7262;48.764;9.166;2023-05-02T15:33:18;18.70;99.90
14357;DHT22;7262;48.764;9.166;2023-05-02T15:35:51;19.00;99.90
14357;DHT22;7262;48.764;9.166;2023-05-02T15:38:18;19.10;99.90
14357;DHT22;7262;48.764;9.166;2023-05-02T15:40:47;19.10;99.90
14357;DHT22;7262;48.764;9.166;2023-05-02T15:43:19;18.80;99.90
14357;DHT22;7262;48.764;9.166;2023-05-02T15:45:48;18.30;99.90
14357;DHT22;7262;48.764;9.166;2023-05-02T15:48:17;18.00;99.90
14357;DHT22;7262;48.764;9.166;2023-05-02T15:50:44;17.90;99.90
14357;DHT22;7262;48.764;9.166;2023-05-02T15:53:11;18.00;99.90
14357;DHT22;7262;48.764;9.166;2023-05-02T15:55:39;18.10;99.90
14357;DHT22;7262;48.764;9.166;2023-05-02T15:58:06;17.80;99.90
14357;DHT22;7262;48.764;9.166;2023-05-02T16:00:33;17.70;99.90
14357;DHT22;7262;48.764;9.166;2023-05-02T16:03:00;17.80;99.90
14357;DHT22;7262;48.764;9.166;2023-05-02T16:05:28;17.70;99.90
14357;DHT22;7262;48.764;9.166;2023-05-02T16:07:55;17.80;99.90
14357;DHT22;7262;48.764;9.166;2023-05-02T16:10:23;18.00;99.90
14357;DHT22;7262;48.764;9.166;2023-05-02T16:12:51;17.80;99.90
14357;DHT22;7262;48.764;9.166;2023-05-02T16:15:19;17.80;99.90
14357;DHT22;7262;48.764;9.166;2023-05-02T16:17:54;17.80;99.90
14357;DHT22;7262;48.764;9.166;2023-05-02T16:20:21;17.70;99.90
14357;DHT22;7262;48.764;9.166;2023-05-02T16:22:57;17.70;99.90